Time;durP1;ratioP1;P1;durP2;ratioP2;P2;SDS_P1;SDS_P2;PMS_P1;PMS_P2;Temp;Humidity;BMP_temperature;BMP_pressure;BME280_temperature;BME280_humidity;BME280_pressure;Samples;Min_cycle;Max_cycle;Signal;HPM_P1;HPM_P2
2022/04/01 00:00:38;;;;;;;27.50;15.53;;;;;;;12.92;80.75;97975.59;5371093;32;33979;-63
2022/04/01 00:03:41;;;;;;;31.67;16.30;;;;;;;13.04;80.00;97971.06;5356658;32;35164;-64
2022/04/01 00:06:43;;;;;;;33.43;15.73;;;;;;;12.28;84.16;97980.28;5361529;32;35246;-63
2022/04/01 00:09:45;;;;;;;29.50;16.13;;;;;;;12.58;82.92;97976.84;5371728;32;33537;-66
2022/04/01 00:12:47;;;;;;;32.37;18.13;;;;;;;12.04;85.72;97975.25;5361835;32;35207;-65
2022/04/01 00:15:50;;;;;;;37.10;18.37;;;;;;;12.01;87.52;97978.16;5374076;32;35236;-63
2022/04/01 00:18:52;;;;;;;37.70;17.65;;;;;;;11.76;89.10;97982.78;5357666;32;34359;-65
2022/04/01 00:21:54;;;;;;;32.40;18.40;;;;;;;12.07;87.19;97975.00;5373526;32;34866;-63
2022/04/01 00:24:57;;;;;;;36.83;19.03;;;;;;;11.87;87.06;97977.50;5360910;32;35813;-63
2022/04/01 00:27:59;;;;;;;34.63;17.17;;;;;;;11.81;88.94;97964.84;5362687;32;34773;-68
2022/04/01 00:31:01;;;;;;;36.83;17.90;;;;;;;12.05;87.83;97974.31;5372870;32;37685;-65
2022/04/01 00:34:16;;;;;;;33.13;17.50;;;;;;;11.54;91.35;97981.06;5361099;32;46780;-66
2022/04/01 00:37:18;;;;;;;36.27;17.30;;;;;;;11.62;91.52;97975.19;5374726;32;35608;-64
2022/04/01 00:40:21;;;;;;;36.93;18.60;;;;;;;11.74;90.98;97968.91;5339919;32;35429;-66
2022/04/01 00:43:30;;;;;;;;;;;;;;;11.85;90.41;97955.75;5373039;32;34335;-64
2022/04/01 00:46:32;;;;;;;35.30;16.57;;;;;;;11.95;89.01;97952.34;5366466;32;36115;-63
2022/04/01 00:49:36;;;;;;;35.40;17.43;;;;;;;12.52;85.75;97956.28;5354887;32;44847;-65
2022/04/01 00:52:38;;;;;;;30.85;17.48;;;;;;;12.93;83.78;97950.06;5374518;32;34970;-66
2022/04/01 00:55:40;;;;;;;36.28;16.87;;;;;;;13.52;79.55;97949.25;5345669;32;34246;-66
2022/04/01 00:58:43;;;;;;;33.17;17.07;;;;;;;12.81;82.33;97951.13;5373280;32;35556;-66
2022/04/01 01:01:45;;;;;;;34.93;17.10;;;;;;;12.72;83.67;97942.25;5357274;32;35447;-66
2022/04/01 01:04:47;;;;;;;31.97;17.77;;;;;;;12.64;84.13;97950.81;5364401;32;34758;-67
2022/04/01 01:07:49;;;;;;;35.27;18.07;;;;;;;12.19;88.00;97955.56;5367175;32;34970;-66
2022/04/01 01:10:51;;;;;;;32.63;16.93;;;;;;;12.59;85.10;97955.63;5360626;32;35245;-67
2022/04/01 01:13:54;;;;;;;38.03;18.27;;;;;;;12.20;85.98;97967.75;5377498;32;35844;-63
2022/04/01 01:16:58;;;;;;;38.33;18.23;;;;;;;12.86;84.15;97957.69;5351316;32;35547;-67
2022/04/01 01:20:01;;;;;;;36.00;16.23;;;;;;;12.81;82.83;97956.41;5353236;32;34923;-64
2022/04/01 01:23:03;;;;;;;34.50;16.43;;;;;;;13.63;78.95;97954.41;5352316;32;35390;-66
2022/04/01 01:26:05;;;;;;;36.57;17.60;;;;;;;14.05;76.25;97949.69;5368117;32;45090;-64
2022/04/01 01:29:07;;;;;;;34.80;16.50;;;;;;;14.01;75.70;97945.66;5371604;32;35293;-66
2022/04/01 01:32:14;;;;;;;35.13;16.23;;;;;;;13.56;78.13;97953.28;5360951;32;35311;-65
2022/04/01 01:35:16;;;;;;;37.23;17.23;;;;;;;12.48;83.29;97946.00;5361331;32;34769;-64
2022/04/01 01:38:19;;;;;;;36.47;17.03;;;;;;;12.73;82.34;97950.00;5351068;32;34810;-65
2022/04/01 01:41:21;;;;;;;35.87;17.23;;;;;;;12.59;84.39;97955.63;5354594;32;36364;-67
2022/04/01 01:44:25;;;;;;;35.70;16.80;;;;;;;12.89;83.90;97949.53;5358922;32;35195;-66
2022/04/01 01:47:27;;;;;;;34.13;17.90;;;;;;;13.42;80.42;97949.25;5348018;32;35210;-66
2022/04/01 01:57:14;;;;;;;35.27;17.37;;;;;;;13.42;79.22;97951.06;5370458;32;44390;-63
2022/04/01 02:00:20;;;;;;;45.53;19.37;;;;;;;13.65;79.35;97954.25;5345579;32;34793;-63
2022/04/01 02:03:22;;;;;;;35.43;17.40;;;;;;;13.89;76.98;97945.94;5364156;32;35230;-64
2022/04/01 02:06:24;;;;;;;37.17;19.03;;;;;;;13.19;81.37;97945.97;5370704;32;36173;-66
2022/04/01 02:09:27;;;;;;;37.47;19.10;;;;;;;12.73;85.29;97952.63;5355730;32;35066;-67
2022/04/01 02:12:30;;;;;;;42.20;19.13;;;;;;;12.47;84.64;97949.59;5372807;32;34966;-64
2022/04/01 02:15:33;;;;;;;;;;;;;;;12.76;85.05;97938.38;5358014;32;34448;-67
2022/04/01 02:18:35;;;;;;;35.80;18.97;;;;;;;12.70;85.22;97941.53;5364102;32;42880;-66
2022/04/01 02:21:37;;;;;;;46.63;19.40;;;;;;;13.93;77.76;97934.97;5349823;32;34385;-67
2022/04/01 02:24:41;;;;;;;53.00;19.60;;;;;;;12.64;83.82;97936.81;5359135;32;34515;-65
2022/04/01 02:27:43;;;;;;;41.93;20.47;;;;;;;12.19;87.60;97939.75;5368182;32;34742;-64
2022/04/01 02:30:45;;;;;;;60.50;20.97;;;;;;;12.14;87.92;97934.03;5361122;32;34529;-64
2022/04/01 02:33:48;;;;;;;52.10;21.58;;;;;;;12.12;89.34;97941.25;5361611;32;35108;-64
2022/04/01 02:36:50;;;;;;;43.10;19.53;;;;;;;12.00;88.98;97929.94;5357413;32;35327;-64
2022/04/01 02:39:52;;;;;;;39.27;18.17;;;;;;;13.22;83.11;97932.56;5351440;32;34592;-64
2022/04/01 02:42:54;;;;;;;37.77;17.97;;;;;;;13.68;79.69;97920.53;5361552;32;35247;-66
2022/04/01 02:45:56;;;;;;;34.10;16.70;;;;;;;13.11;81.14;97918.63;5362782;32;34730;-65
2022/04/01 02:48:58;;;;;;;34.03;17.80;;;;;;;12.15;87.42;97922.53;5373778;32;34806;-66
2022/04/01 02:52:00;;;;;;;30.10;16.43;;;;;;;12.05;89.49;97916.41;5358872;32;35428;-62
2022/04/01 02:55:03;;;;;;;28.63;15.50;;;;;;;12.18;90.61;97907.31;5377567;32;34636;-66
2022/04/01 02:58:06;;;;;;;27.20;14.90;;;;;;;12.01;90.88;97902.66;5352661;32;44524;-63
2022/04/01 03:01:08;;;;;;;25.92;14.00;;;;;;;12.23;88.01;97913.97;5361788;32;35422;-63
2022/04/01 03:04:11;;;;;;;23.63;13.37;;;;;;;13.24;82.84;97908.69;5354644;32;34783;-65
2022/04/01 03:07:13;;;;;;;24.30;13.43;;;;;;;13.75;78.83;97902.31;5353682;32;34513;-64
2022/04/01 03:10:15;;;;;;;22.10;11.57;;;;;;;12.89;81.78;97896.81;5376946;32;34123;-63
2022/04/01 03:13:17;;;;;;;20.87;11.27;;;;;;;12.99;81.89;97897.63;5355704;32;34125;-65
2022/04/01 03:16:19;;;;;;;23.77;12.77;;;;;;;12.68;84.27;97920.56;5372468;32;34713;-65
2022/04/01 03:19:22;;;;;;;23.77;12.23;;;;;;;13.13;81.00;97909.59;5358196;32;34404;-66
2022/04/01 03:22:24;;;;;;;22.87;11.90;;;;;;;12.51;84.55;97913.31;5360554;32;34630;-65
2022/04/01 03:25:32;;;;;;;23.87;13.17;;;;;;;12.29;86.56;97897.66;5356466;32;34737;-63
2022/04/01 03:28:35;;;;;;;25.50;12.50;;;;;;;12.83;83.81;97907.06;5361648;32;44837;-66
2022/04/01 03:31:38;;;;;;;22.93;12.87;;;;;;;12.80;84.64;97902.03;5360818;32;35223;-66
2022/04/01 03:34:41;;;;;;;23.33;12.37;;;;;;;13.18;83.01;97927.66;5347538;32;35092;-65
2022/04/01 03:37:49;;;;;;;22.58;11.82;;;;;;;13.45;80.87;97940.22;5371261;32;36293;-66
2022/04/01 03:40:51;;;;;;;20.43;11.30;;;;;;;12.53;84.51;97931.62;5341704;32;36577;-65
2022/04/01 03:43:54;;;;;;;24.90;13.20;;;;;;;12.19;87.04;97918.69;5366666;32;35234;-66
2022/04/01 03:47:10;;;;;;;21.63;12.33;;;;;;;12.16;89.02;97903.13;5367112;32;34651;-64
2022/04/01 03:50:13;;;;;;;18.93;11.73;;;;;;;12.15;89.63;97906.75;5362883;32;47241;-64
2022/04/01 03:53:16;;;;;;;26.23;13.10;;;;;;;13.25;83.37;97912.97;5370743;32;35219;-64
2022/04/01 03:56:22;;;;;;;23.70;12.37;;;;;;;13.25;81.63;97923.53;5356704;32;35300;-64
2022/04/01 03:59:26;;;;;;;19.67;11.13;;;;;;;13.22;81.02;97919.38;5365630;32;34850;-65
2022/04/01 04:02:32;;;;;;;19.80;10.13;;;;;;;12.20;87.73;97904.56;5362135;32;35580;-64
2022/04/01 04:05:38;;;;;;;19.23;10.47;;;;;;;12.56;86.45;97916.38;5351665;32;45028;-64
2022/04/01 04:08:43;;;;;;;19.33;10.83;;;;;;;12.07;87.26;97912.66;5367678;32;35330;-64
2022/04/01 04:11:45;;;;;;;19.37;10.87;;;;;;;11.61;90.96;97907.75;5358963;32;35006;-65
2022/04/01 04:14:51;;;;;;;25.27;12.13;;;;;;;12.04;90.06;97912.06;5369197;32;34283;-64
2022/04/01 04:17:59;;;;;;;19.77;12.03;;;;;;;12.18;88.79;97907.31;5344942;32;34770;-65
2022/04/01 04:21:15;;;;;;;22.67;12.53;;;;;;;12.35;88.46;97912.94;5359799;32;34765;-67
2022/04/01 04:24:20;;;;;;;20.53;11.77;;;;;;;13.27;83.58;97908.44;5375202;32;34264;-64
2022/04/01 04:27:27;;;;;;;20.93;11.67;;;;;;;13.77;79.32;97908.28;5343331;32;35449;-65
2022/04/01 04:30:39;;;;;;;21.50;12.07;;;;;;;12.88;82.80;97889.87;5375807;32;35395;-65
2022/04/01 04:33:46;;;;;;;23.27;12.57;;;;;;;12.67;85.31;97881.19;5346023;32;45421;-66
2022/04/01 04:36:57;;;;;;;23.33;13.53;;;;;;;12.20;86.89;97870.31;5364273;32;34109;-64
2022/04/01 04:40:01;;;;;;;22.00;12.83;;;;;;;12.57;86.10;97875.06;5350617;32;35357;-64
2022/04/01 04:43:03;;;;;;;20.45;11.90;;;;;;;12.90;84.01;97874.75;5358061;32;34303;-63
2022/04/01 04:46:06;;;;;;;21.37;11.80;;;;;;;12.41;89.44;97878.19;5375743;32;45250;-64
2022/04/01 04:49:09;;;;;;;19.80;10.93;;;;;;;13.90;79.09;97884.22;5361991;32;35092;-64
2022/04/01 04:52:12;;;;;;;18.17;10.85;;;;;;;14.00;77.38;97885.88;5360498;32;34449;-64
2022/04/01 04:55:17;;;;;;;21.35;11.25;;;;;;;12.93;83.30;97889.44;5348707;32;34817;-67
2022/04/01 04:58:21;;;;;;;19.00;11.87;;;;;;;12.89;82.67;97891.53;5359789;32;34101;-64
2022/04/01 05:01:38;;;;;;;17.43;10.67;;;;;;;13.28;81.66;97894.25;5375168;32;35232;-64
2022/04/01 05:05:04;;;;;;;20.07;11.67;;;;;;;13.26;79.29;97904.09;5352496;32;44651;-68
2022/04/01 05:08:27;;;;;;;18.90;11.47;;;;;;;13.76;78.53;97899.53;5385552;32;45484;-66
2022/04/01 05:11:51;;;;;;;;;;;;;;;13.12;81.99;97902.66;5365209;32;35692;-64
2022/04/01 05:15:00;;;;;;;19.02;10.95;;;;;;;12.25;84.42;97901.53;5355840;32;35125;-65
2022/04/01 05:18:04;;;;;;;19.53;10.10;;;;;;;11.97;87.81;97905.66;5370198;32;34913;-64
2022/04/01 05:21:18;;;;;;;16.53;10.40;;;;;;;12.62;84.15;97894.78;5358565;32;44776;-65
2022/04/01 05:24:28;;;;;;;19.60;11.07;;;;;;;12.77;84.59;97913.69;5366980;32;34688;-66
2022/04/01 05:27:35;;;;;;;20.20;11.50;;;;;;;13.12;81.57;97918.47;5352017;32;35019;-66
2022/04/01 05:30:39;;;;;;;19.97;10.20;;;;;;;12.55;84.35;97927.03;5362546;32;44472;-64
2022/04/01 05:34:08;;;;;;;23.65;11.65;;;;;;;13.42;80.18;97908.84;5366827;32;36115;-67
2022/04/01 05:37:17;;;;;;;16.70;10.40;;;;;;;13.39;80.36;97909.94;5351095;32;34404;-67
2022/04/01 05:40:21;;;;;;;17.60;9.82;;;;;;;13.23;80.66;97913.13;5345882;32;34239;-64
2022/04/01 05:43:25;;;;;;;17.10;9.77;;;;;;;13.46;78.70;97918.13;5365618;32;34192;-65
2022/04/01 05:46:27;;;;;;;14.93;8.30;;;;;;;13.67;77.87;97912.75;5354670;32;34218;-65
2022/04/01 05:49:29;;;;;;;16.10;9.00;;;;;;;13.38;78.36;97908.28;5375055;32;36741;-64
2022/04/01 05:52:34;;;;;;;15.47;9.70;;;;;;;12.93;79.24;97908.72;5360803;32;34053;-67
2022/04/01 05:55:37;;;;;;;17.03;9.77;;;;;;;11.95;84.91;97915.50;5360435;32;44629;-63
2022/04/01 05:58:40;;;;;;;15.98;8.68;;;;;;;12.63;82.16;97912.25;5354587;32;34559;-66
2022/04/01 06:01:47;;;;;;;16.30;9.00;;;;;;;12.28;85.06;97907.38;5355012;32;34215;-67
2022/04/01 06:05:05;;;;;;;14.73;8.50;;;;;;;12.63;84.15;97906.16;5353919;32;35627;-68
2022/04/01 06:08:21;;;;;;;14.47;8.40;;;;;;;12.00;87.02;97908.88;5364054;32;44854;-70
2022/04/01 06:11:42;;;;;;;15.70;9.30;;;;;;;12.83;81.81;97912.31;5369373;32;34121;-67
2022/04/01 06:15:08;;;;;;;12.77;7.67;;;;;;;13.75;78.19;97916.34;5349815;32;35253;-65
2022/04/01 06:18:19;;;;;;;13.40;8.13;;;;;;;14.16;75.03;97916.97;5352848;32;45146;-64
2022/04/01 06:21:24;;;;;;;12.57;7.43;;;;;;;12.70;79.65;97921.28;5378656;32;33980;-63
2022/04/01 06:24:29;;;;;;;15.90;7.97;;;;;;;12.95;81.60;97914.72;5362561;32;34191;-65
2022/04/01 06:27:38;;;;;;;14.27;8.87;;;;;;;12.96;80.79;97907.63;5368655;32;34022;-66
2022/04/01 06:30:43;;;;;;;15.43;8.30;;;;;;;12.48;84.46;97906.47;5337574;32;44662;-64
2022/04/01 06:34:04;;;;;;;16.47;8.03;;;;;;;13.91;77.03;97907.00;5360802;32;34930;-65
2022/04/01 06:37:09;;;;;;;14.00;8.13;;;;;;;12.60;80.70;97903.75;5347547;32;44426;-68
2022/04/01 06:40:14;;;;;;;15.60;8.30;;;;;;;12.40;81.94;97914.22;5331498;32;34752;-64
2022/04/01 06:43:17;;;;;;;13.93;7.93;;;;;;;12.77;82.73;97913.69;5329848;32;34482;-62
2022/04/01 06:46:19;;;;;;;15.63;8.10;;;;;;;12.45;82.83;97913.84;5337167;32;35474;-62
2022/04/01 06:49:22;;;;;;;14.67;8.33;;;;;;;12.18;85.01;97917.03;5363039;32;34617;-63
2022/04/01 06:52:25;;;;;;;13.00;7.57;;;;;;;12.40;84.04;97922.13;5378574;32;35774;-64
2022/04/01 06:55:27;;;;;;;20.07;9.60;;;;;;;12.19;85.76;97923.97;5338752;32;34268;-63
2022/04/01 06:58:30;;;;;;;13.93;8.33;;;;;;;12.22;84.37;97933.38;5369680;32;35495;-68
2022/04/01 07:01:34;;;;;;;13.90;7.40;;;;;;;12.94;81.57;97931.47;5354073;32;35671;-68
2022/04/01 07:04:36;;;;;;;13.27;7.23;;;;;;;12.99;80.26;97933.72;5373719;32;44800;-74
2022/04/01 07:07:43;;;;;;;12.87;7.07;;;;;;;12.52;82.28;97936.06;5365807;32;34081;-63
2022/04/01 07:10:46;;;;;;;12.73;6.53;;;;;;;12.03;84.59;97939.38;5360420;32;35273;-72
2022/04/01 07:13:49;;;;;;;11.50;5.85;;;;;;;12.25;82.87;97930.50;5369079;32;34291;-76
2022/04/01 07:16:51;;;;;;;12.50;5.80;;;;;;;12.86;79.22;97933.97;5369682;32;34136;-66
2022/04/01 07:19:53;;;;;;;13.20;6.43;;;;;;;13.13;79.08;97928.06;5364305;32;34146;-64
2022/04/01 07:22:55;;;;;;;11.17;5.53;;;;;;;12.77;78.96;97921.59;5360155;32;33977;-68
2022/04/01 07:25:58;;;;;;;10.90;5.45;;;;;;;11.88;85.69;97923.91;5348530;32;35613;-71
2022/04/01 07:29:01;;;;;;;8.73;5.40;;;;;;;11.63;87.71;97922.44;5369750;32;34162;-73
2022/04/01 07:32:29;;;;;;;9.47;4.87;;;;;;;12.24;83.96;97923.56;5364096;32;48280;-72
2022/04/01 07:35:34;;;;;;;7.77;3.90;;;;;;;12.26;84.17;97919.84;5376809;32;35807;-71
2022/04/01 07:38:39;;;;;;;9.50;3.73;;;;;;;11.85;86.65;97918.03;5350813;32;44338;-71
2022/04/01 07:41:41;;;;;;;8.93;4.00;;;;;;;11.74;86.58;97918.91;5366209;32;34054;-65
2022/04/01 07:44:44;;;;;;;6.90;3.10;;;;;;;13.51;77.65;97919.41;5362550;32;34203;-65
2022/04/01 07:47:48;;;;;;;7.93;3.25;;;;;;;12.00;84.25;97929.94;5369704;32;35324;-78
2022/04/01 07:50:50;;;;;;;7.37;2.47;;;;;;;12.28;84.06;97923.16;5373179;32;35522;-64
2022/04/01 07:53:52;;;;;;;6.77;2.93;;;;;;;11.54;85.98;97931.09;5364802;32;35936;-70
2022/04/01 07:56:55;;;;;;;7.37;2.30;;;;;;;12.59;81.96;97920.53;5368327;32;34684;-63
2022/04/01 07:59:57;;;;;;;4.83;2.10;;;;;;;12.03;82.46;97932.31;5371876;32;33215;-69
2022/04/01 08:02:59;;;;;;;7.47;2.40;;;;;;;12.11;82.50;97926.41;5371180;32;35171;-69
2022/04/01 08:06:01;;;;;;;6.53;2.80;;;;;;;11.83;84.15;97933.13;5365849;32;34160;-63
2022/04/01 08:09:04;;;;;;;7.30;2.70;;;;;;;12.07;83.32;97943.41;5367604;32;34055;-73
2022/04/01 08:12:08;;;;;;;7.15;2.80;;;;;;;12.14;83.55;97944.56;5373105;32;46679;-68
2022/04/01 08:15:12;;;;;;;5.20;2.90;;;;;;;12.41;81.77;97950.13;5368832;32;34326;-65
2022/04/01 08:18:14;;;;;;;7.05;3.22;;;;;;;11.41;84.64;97958.50;5371135;32;34909;-62
2022/04/01 08:21:17;;;;;;;6.97;3.40;;;;;;;11.68;85.39;97961.53;5352995;32;34672;-69
2022/04/01 08:24:19;;;;;;;10.77;4.20;;;;;;;12.28;82.29;97960.03;5375442;32;34669;-69
2022/04/01 08:27:22;;;;;;;5.87;3.63;;;;;;;11.72;83.01;97951.56;5354109;32;35525;-62
2022/04/01 08:30:25;;;;;;;4.87;3.10;;;;;;;12.42;80.67;97958.87;5358119;32;35355;-63
2022/04/01 08:33:27;;;;;;;5.90;2.62;;;;;;;12.12;81.17;97952.59;5374458;32;34807;-64
2022/04/01 08:36:30;;;;;;;7.13;3.20;;;;;;;12.06;83.03;97960.19;5343861;32;35253;-66
2022/04/01 08:39:32;;;;;;;7.80;3.20;;;;;;;12.45;81.18;97966.53;5358081;32;34121;-66
2022/04/01 08:42:36;;;;;;;7.23;3.80;;;;;;;11.68;82.91;97979.94;5346779;32;44560;-71
2022/04/01 08:45:42;;;;;;;5.77;3.27;;;;;;;12.33;79.84;97970.19;5369834;32;34204;-64
2022/04/01 08:48:45;;;;;;;7.18;3.62;;;;;;;12.61;77.05;97980.03;5362847;32;33904;-66
2022/04/01 08:51:47;;;;;;;5.45;2.60;;;;;;;12.48;78.13;97988.16;5362885;32;34179;-72
2022/04/01 08:54:53;;;;;;;4.20;2.20;;;;;;;11.93;79.78;97995.41;5370866;32;34075;-73
2022/04/01 08:57:55;;;;;;;7.90;2.77;;;;;;;12.01;79.25;97993.94;5361834;32;34182;-70
2022/04/01 09:00:59;;;;;;;5.10;2.10;;;;;;;12.95;74.89;98000.88;5370283;32;34247;-69
2022/04/01 09:04:18;;;;;;;4.90;2.17;;;;;;;13.08;72.62;98000.66;5360344;32;34414;-64
2022/04/01 09:07:23;;;;;;;3.77;1.90;;;;;;;12.87;75.22;97993.62;5365009;32;33846;-69
2022/04/01 09:10:25;;;;;;;3.73;1.90;;;;;;;12.45;74.83;97995.50;5373917;32;35326;-71
2022/04/01 09:13:38;;;;;;;4.93;2.77;;;;;;;12.21;76.31;98003.66;5365146;32;34262;-69
2022/04/01 09:16:41;;;;;;;4.57;2.13;;;;;;;12.15;76.50;98006.81;5372432;32;44416;-69
2022/04/01 09:19:43;;;;;;;3.33;1.90;;;;;;;13.15;74.02;97999.97;5361008;32;35406;-64
2022/04/01 09:22:45;;;;;;;3.90;2.00;;;;;;;13.17;73.12;98002.47;5368254;32;34085;-68
2022/04/01 09:25:49;;;;;;;4.87;2.33;;;;;;;12.13;76.14;98011.37;5365151;32;35868;-63
2022/04/01 09:28:52;;;;;;;2.60;1.67;;;;;;;13.35;73.02;98003.53;5359293;32;35547;-69
2022/04/01 09:32:06;;;;;;;4.20;1.80;;;;;;;13.45;72.29;98006.19;5372563;32;34078;-64
2022/04/01 09:35:12;;;;;;;4.97;1.73;;;;;;;12.57;75.01;98004.16;5364508;32;44418;-71
2022/04/01 09:38:17;;;;;;;5.40;2.07;;;;;;;12.15;77.03;98007.62;5356747;32;34070;-71
2022/04/01 09:41:20;;;;;;;8.97;4.57;;;;;;;13.08;73.00;98005.94;5341439;32;34145;-71
2022/04/01 09:44:43;;;;;;;2.97;1.67;;;;;;;13.17;72.13;98011.22;5356608;32;44772;-62
2022/04/01 09:47:59;;;;;;;4.00;1.95;;;;;;;13.81;67.85;98013.47;5375392;32;35623;-71
2022/04/01 09:51:01;;;;;;;2.27;1.30;;;;;;;12.94;71.41;98015.84;5351946;32;35778;-71
2022/04/01 09:54:04;;;;;;;5.73;1.90;;;;;;;13.35;69.65;98016.72;5382021;32;35706;-67
2022/04/01 09:57:28;;;;;;;3.83;1.90;;;;;;;12.73;73.29;98018.53;5364396;32;36231;-64
2022/04/01 10:00:31;;;;;;;9.00;2.23;;;;;;;13.15;71.38;98013.16;5362434;32;34093;-68
2022/04/01 10:03:34;;;;;;;;;;;;;;;12.52;73.01;98024.78;5360359;32;37431;-65
2022/04/01 10:06:36;;;;;;;3.40;2.13;;;;;;;11.71;75.29;98034.94;5363393;32;34367;-71
2022/04/01 10:09:39;;;;;;;6.15;2.03;;;;;;;11.93;74.76;98037.53;5372991;32;35773;-66
2022/04/01 10:13:17;;;;;;;4.65;1.98;;;;;;;11.29;76.44;98037.44;5345572;32;34547;-68
2022/04/01 10:16:20;;;;;;;4.37;1.80;;;;;;;12.45;72.42;98030.59;5356408;32;35451;-68
2022/04/01 10:19:29;;;;;;;3.03;1.63;;;;;;;11.89;73.00;98035.28;5374967;32;35747;-71
2022/04/01 10:22:32;;;;;;;4.77;2.00;;;;;;;12.60;68.31;98027.59;5349068;32;34228;-69
2022/04/01 10:26:04;;;;;;;3.57;1.90;;;;;;;11.35;74.40;98046.62;5374524;32;43225;-68
2022/04/01 10:29:07;;;;;;;4.87;2.17;;;;;;;11.27;75.71;98057.75;5356266;32;46625;-68
2022/04/01 10:32:29;;;;;;;5.82;2.70;;;;;;;11.86;71.51;98052.16;5364899;32;35204;-64
2022/04/01 10:35:38;;;;;;;5.40;2.83;;;;;;;12.34;70.79;98054.34;5363095;32;34216;-74
2022/04/01 10:38:40;;;;;;;4.70;2.10;;;;;;;11.98;71.33;98058.22;5336153;32;46264;-69
2022/04/01 10:42:06;;;;;;;4.27;2.33;;;;;;;11.54;71.73;98070.50;5354103;32;35721;-63
2022/04/01 10:45:17;;;;;;;5.27;2.40;;;;;;;12.83;67.44;98060.75;5366371;32;43590;-63
2022/04/01 10:51:42;;;;;;;4.37;2.40;;;;;;;11.56;73.54;98076.47;5362870;32;45242;-70
2022/04/01 10:54:49;;;;;;;4.10;2.50;;;;;;;12.22;71.17;98071.16;5358646;32;34237;-69
2022/04/01 10:57:51;;;;;;;4.87;2.90;;;;;;;11.66;71.97;98077.44;5374097;32;35442;-67
2022/04/01 11:00:53;;;;;;;5.87;3.03;;;;;;;12.42;71.40;98070.34;5349833;32;35072;-65
2022/04/01 11:04:21;;;;;;;5.70;3.50;;;;;;;12.51;69.91;98081.94;5368916;32;34043;-64
2022/04/01 11:07:23;;;;;;;4.07;2.53;;;;;;;12.43;71.77;98076.47;5369599;32;34165;-64
2022/04/01 11:10:25;;;;;;;5.70;2.93;;;;;;;13.06;66.51;98081.69;5354567;32;33870;-66
2022/04/01 11:13:30;;;;;;;4.87;2.60;;;;;;;13.43;65.47;98079.38;5374029;32;34369;-63
2022/04/01 11:16:49;;;;;;;5.80;3.00;;;;;;;12.10;68.17;98094.06;5362539;32;34225;-66
2022/04/01 11:20:21;;;;;;;8.07;3.73;;;;;;;13.01;65.81;98090.00;5358858;32;35845;-65
2022/04/01 11:23:33;;;;;;;7.60;3.33;;;;;;;10.95;72.44;98098.81;5366997;32;34103;-67
2022/04/01 11:26:40;;;;;;;6.63;3.00;;;;;;;11.08;73.34;98102.22;5355080;32;46490;-66
2022/04/01 11:30:28;;;;;;;6.33;3.10;;;;;;;11.83;70.37;98102.41;5358248;32;34272;-67
2022/04/01 11:33:30;;;;;;;5.10;3.17;;;;;;;11.38;72.81;98089.28;5358169;32;34498;-67
2022/04/01 11:36:32;;;;;;;5.97;3.20;;;;;;;11.93;69.45;98094.63;5348047;32;34190;-66
2022/04/01 11:39:34;;;;;;;6.87;3.40;;;;;;;11.81;70.24;98103.50;5349035;32;44612;-65
2022/04/01 11:42:57;;;;;;;7.37;3.83;;;;;;;11.62;71.26;98104.09;5354103;32;35425;-65
2022/04/01 11:46:03;;;;;;;5.73;3.00;;;;;;;11.69;70.25;98091.28;5367279;32;34039;-64
2022/04/01 11:49:07;;;;;;;7.93;3.50;;;;;;;10.72;72.13;98104.06;5364384;32;44572;-64
2022/04/01 11:52:10;;;;;;;6.57;3.50;;;;;;;11.06;69.62;98096.22;5346130;32;34827;-68
2022/04/01 11:55:24;;;;;;;5.47;2.95;;;;;;;11.18;72.83;98099.69;5366689;32;35253;-67
2022/04/01 11:58:34;;;;;;;7.17;3.33;;;;;;;12.03;68.49;98097.31;5357249;32;35347;-67
2022/04/01 12:01:58;;;;;;;8.17;2.93;;;;;;;11.35;69.71;98097.44;5374650;32;44325;-67
2022/04/01 12:05:00;;;;;;;;;;;;;;;10.96;71.84;98096.09;5371361;32;35505;-64
2022/04/01 12:11:23;;;;;;;6.47;3.33;;;;;;;11.80;68.20;98086.84;5377424;32;35393;-64
2022/04/01 12:14:26;;;;;;;6.33;3.20;;;;;;;11.79;66.59;98100.12;5354986;32;34903;-64
2022/04/01 12:17:29;;;;;;;6.32;3.62;;;;;;;12.20;65.05;98095.00;5365082;32;35226;-64
2022/04/01 12:20:36;;;;;;;7.00;3.60;;;;;;;12.54;63.52;98096.63;5351962;32;35588;-65
2022/04/01 12:23:46;;;;;;;7.17;4.00;;;;;;;11.73;67.15;98105.88;5326427;32;45272;-67
2022/04/01 12:26:48;;;;;;;6.77;3.90;;;;;;;11.64;66.71;98117.97;5372534;32;34633;-63
2022/04/01 12:29:50;;;;;;;7.80;4.00;;;;;;;11.52;65.54;98116.28;5352571;32;34663;-67
2022/04/01 12:32:57;;;;;;;7.40;4.20;;;;;;;12.02;63.44;98116.72;5369987;32;34728;-64
2022/04/01 12:36:04;;;;;;;11.20;6.43;;;;;;;11.97;64.62;98124.16;5348589;32;33214;-67
2022/04/01 12:39:09;;;;;;;8.77;4.70;;;;;;;12.40;63.96;98124.97;5345811;32;46730;-67
2022/04/01 12:42:14;;;;;;;8.23;4.20;;;;;;;12.86;60.25;98118.50;5368323;32;34757;-68
2022/04/01 12:45:17;;;;;;;9.07;5.03;;;;;;;11.98;64.10;98133.72;5360070;32;35256;-64
2022/04/01 12:48:24;;;;;;;8.37;4.60;;;;;;;11.22;67.13;98138.78;5376572;32;35245;-63
2022/04/01 12:51:34;;;;;;;28.63;13.00;;;;;;;11.58;64.98;98142.13;5365806;32;34705;-68
2022/04/01 12:54:39;;;;;;;9.37;4.93;;;;;;;11.10;65.84;98137.94;5362856;32;47068;-68
2022/04/01 12:57:50;;;;;;;15.00;6.53;;;;;;;11.47;64.49;98142.97;5368151;32;35478;-68
2022/04/01 13:01:05;;;;;;;10.80;5.67;;;;;;;11.14;67.14;98141.16;5349862;32;34070;-64
2022/04/01 13:04:09;;;;;;;9.67;5.30;;;;;;;11.41;66.43;98148.72;5371556;32;44422;-68
2022/04/01 13:07:12;;;;;;;9.70;5.10;;;;;;;11.02;64.89;98145.56;5345253;32;34269;-68
2022/04/01 13:10:15;;;;;;;11.53;6.10;;;;;;;11.44;63.23;98152.88;5369596;32;34443;-63
2022/04/01 13:13:20;;;;;;;12.77;6.65;;;;;;;11.05;64.56;98155.00;5363423;32;34168;-64
2022/04/01 13:16:22;;;;;;;11.43;6.27;;;;;;;11.00;65.99;98159.78;5362858;32;35197;-69
2022/04/01 13:19:30;;;;;;;12.13;6.97;;;;;;;11.58;63.52;98152.62;5365527;32;35513;-68
2022/04/01 13:22:32;;;;;;;14.60;8.43;;;;;;;12.16;61.07;98155.94;5360049;32;34542;-65
2022/04/01 13:25:34;;;;;;;12.40;7.70;;;;;;;12.14;61.12;98161.31;5355928;32;251713;-66
2022/04/01 13:28:36;;;;;;;12.00;7.97;;;;;;;10.67;65.21;98163.16;5364067;32;36118;-68
2022/04/01 13:31:40;;;;;;;13.63;7.97;;;;;;;11.65;64.08;98164.34;5374835;32;35145;-67
2022/04/01 13:34:42;;;;;;;15.40;8.55;;;;;;;11.12;64.30;98177.25;5362868;32;34950;-67
2022/04/01 13:37:44;;;;;;;13.23;8.03;;;;;;;11.63;63.37;98174.16;5363814;32;34580;-66
2022/04/01 13:40:48;;;;;;;14.00;9.37;;;;;;;10.99;63.85;98179.97;5355415;32;34458;-66
2022/04/01 13:43:50;;;;;;;;;;;;;;;11.75;62.70;98167.09;5362019;32;34557;-68
2022/04/01 13:46:53;;;;;;;13.80;9.07;;;;;;;11.60;62.93;98167.38;5375163;32;34545;-64
2022/04/01 13:49:55;;;;;;;14.35;9.35;;;;;;;10.90;64.91;98179.84;5340624;32;33057;-68
2022/04/01 13:52:57;;;;;;;15.03;10.53;;;;;;;10.04;68.24;98173.81;5367838;32;34902;-67
2022/04/01 13:55:59;;;;;;;14.80;10.07;;;;;;;10.27;67.15;98173.97;5353433;32;34747;-66
2022/04/01 13:59:02;;;;;;;15.20;10.17;;;;;;;10.36;66.65;98175.09;5362904;32;35382;-67
2022/04/01 14:02:04;;;;;;;17.47;9.87;;;;;;;11.30;62.85;98167.94;5363439;32;37262;-64
2022/04/01 14:05:07;;;;;;;16.47;9.67;;;;;;;11.29;62.68;98178.59;5352611;32;34689;-67
2022/04/01 14:08:09;;;;;;;15.63;10.60;;;;;;;10.76;63.91;98179.09;5375121;32;33321;-66
2022/04/01 14:11:12;;;;;;;15.65;10.35;;;;;;;10.22;64.71;98192.66;5359574;32;35018;-64
2022/04/01 14:14:15;;;;;;;17.00;10.90;;;;;;;11.16;61.69;98188.38;5366420;32;35326;-67
2022/04/01 14:17:17;;;;;;;17.50;11.32;;;;;;;11.00;62.65;98196.56;5353270;32;34697;-68
2022/04/01 14:20:20;;;;;;;17.65;11.90;;;;;;;10.74;63.58;98207.25;5352541;32;35039;-67
2022/04/01 14:23:22;;;;;;;17.87;12.10;;;;;;;10.55;64.14;98206.91;5372398;32;33948;-63
2022/04/01 14:26:25;;;;;;;16.90;11.70;;;;;;;10.35;64.93;98216.25;5362064;32;34878;-64
2022/04/01 14:32:52;;;;;;;21.23;12.87;;;;;;;10.10;66.45;98218.94;5354986;32;35128;-68
2022/04/01 14:35:54;;;;;;;17.90;12.60;;;;;;;10.62;64.94;98225.69;5348867;32;34857;-64
2022/04/01 14:38:57;;;;;;;19.73;12.70;;;;;;;10.53;64.12;98227.22;5358182;32;35355;-69
2022/04/01 14:42:00;;;;;;;18.60;13.18;;;;;;;9.75;65.78;98220.50;5359818;32;34848;-68